createdAt,value
2019-03-09T16:21:07.760Z,98.57
2019-03-09T16:22:09.522Z,98.28
2019-03-09T16:23:15.558Z,97.99
2019-03-09T16:24:16.678Z,98.18
2019-03-09T16:25:16.498Z,97.99
2019-03-09T16:26:15.162Z,97.52
2019-03-09T16:27:13.783Z,98.47
2019-03-09T16:29:29.753Z,97.71
2019-03-09T16:30:29.350Z,97.23
2019-03-09T16:31:28.080Z,97.42
2019-03-09T16:33:35.561Z,96.94
2019-03-09T16:35:36.414Z,96.75
2019-03-09T16:36:36.901Z,96.84
2019-03-09T16:37:35.676Z,97.42
2019-03-09T16:38:46.641Z,97.03
2019-03-09T16:39:52.504Z,96.37
2019-03-09T16:40:53.722Z,96.66
2019-03-09T16:41:52.306Z,96.56
2019-03-09T16:42:53.170Z,96.61
2019-03-09T16:43:56.211Z,96.51
2019-03-09T16:45:00.157Z,96.89
2019-03-09T16:46:00.383Z,96.8
2019-03-09T16:46:59.816Z,96.32
2019-03-09T16:47:59.956Z,96.17
2019-03-09T16:49:26.792Z,95.56
2019-03-09T16:50:26.643Z,95.65
2019-03-09T16:51:26.209Z,95.17
2019-03-09T16:52:24.863Z,96.13
2019-03-09T16:53:26.426Z,95.84
2019-03-09T16:55:43.402Z,95.56
2019-03-09T16:58:01.162Z,96.22
2019-03-09T17:00:02.802Z,96.17
2019-03-09T17:01:00.391Z,96.17
2019-03-09T17:02:37.474Z,95.22
2019-03-09T17:06:17.601Z,95.41
2019-03-09T17:07:16.157Z,95.56
2019-03-09T17:08:14.733Z,95.51
2019-03-09T17:11:03.557Z,95.79
2019-03-09T17:14:26.519Z,96.17
2019-03-09T17:15:25.167Z,96.08
2019-03-09T17:16:25.256Z,96.17
2019-03-09T17:17:24.436Z,96.37
2019-03-09T17:18:24.698Z,96.27
2019-03-09T17:19:26.734Z,96.46
2019-03-09T17:21:24.065Z,96.75
2019-03-09T17:22:32.374Z,96.08
2019-03-09T17:25:06.340Z,96.84
2019-03-09T17:26:05.035Z,96.56
2019-03-09T17:28:05.399Z,97.13
2019-03-09T17:29:04.076Z,97.13
2019-03-09T17:31:04.762Z,96.37
2019-03-09T18:02:04.594Z,94.93
2019-03-09T18:04:06.344Z,94.65
2019-03-09T18:05:04.949Z,94.65
2019-03-09T18:06:03.599Z,94.84
2019-03-09T18:08:04.780Z,94.84
2019-03-09T18:12:28.071Z,94.65
2019-03-09T18:13:27.835Z,93.88
2019-03-09T18:16:09.048Z,93.6
2019-03-09T18:18:17.699Z,94.27
2019-03-09T18:20:21.004Z,94.36
2019-03-09T18:22:42.440Z,94.36
2019-03-09T18:25:39.721Z,94.17
2019-03-09T18:26:40.754Z,94.55
2019-03-09T18:27:42.152Z,94.07
2019-03-09T18:28:40.766Z,93.79
2019-03-09T18:32:10.359Z,93.88
2019-03-09T18:33:32.503Z,93.88
2019-03-09T18:34:32.565Z,94.07
2019-03-09T18:35:33.391Z,93.5
2019-03-09T18:36:57.024Z,93.31
2019-03-09T18:38:32.787Z,93.02
2019-03-09T18:40:49.645Z,93.31
2019-03-09T18:41:46.945Z,92.93
2019-03-09T18:43:39.738Z,93.7
2019-03-09T18:45:14.318Z,93.88
2019-03-09T18:46:16.603Z,93.98
2019-03-09T18:47:17.446Z,93.79
2019-03-09T18:48:16.821Z,93.7
2019-03-09T18:50:53.864Z,93.12
2019-03-09T18:52:45.831Z,94.07
2019-03-09T18:53:46.252Z,94.07
2019-03-09T18:54:46.650Z,93.31
2019-03-09T18:59:43.603Z,93.5
2019-03-09T19:00:42.349Z,93.21
2019-03-09T19:03:26.329Z,93.21
2019-03-09T19:06:06.682Z,93.21
2019-03-09T19:13:44.331Z,91.88
2019-03-09T19:14:42.974Z,91.97
2019-03-09T19:15:43.151Z,91.69
2019-03-09T19:20:25.260Z,91.5
2019-03-09T19:21:23.951Z,91.59
2019-03-09T19:22:22.609Z,91.88
2019-03-09T19:23:21.439Z,91.88
2019-03-09T19:24:20.070Z,91.78
2019-03-09T19:25:18.615Z,91.97
2019-03-09T19:29:01.746Z,92.26
2019-03-09T19:31:42.508Z,91.5
2019-03-09T19:32:41.083Z,91.5
2019-03-09T19:33:39.750Z,92.16
2019-03-09T19:34:38.334Z,91.59
2019-03-09T19:35:37.964Z,91.78
2019-03-09T19:36:36.565Z,92.26
2019-03-09T19:37:35.152Z,91.59
2019-03-09T19:38:33.826Z,91.21
2019-03-09T19:41:14.045Z,91.59
2019-03-09T19:42:12.661Z,91.3
2019-03-09T19:44:52.839Z,91.59
2019-03-09T19:45:51.441Z,91.59
2019-03-09T19:46:50.656Z,91.97
2019-03-09T19:47:49.623Z,91.02
2019-03-09T20:13:25.106Z,89.11
2019-03-09T20:14:23.737Z,88.92
2019-03-09T20:15:22.372Z,88.82
2019-03-09T20:16:21.026Z,88.87
2019-03-09T20:17:19.681Z,88.87
2019-03-09T20:18:18.480Z,89.06
2019-03-09T20:19:17.142Z,89.01
2019-03-09T20:20:15.885Z,88.54
2019-03-09T20:21:14.495Z,88.39
2019-03-09T20:22:13.291Z,89.25
2019-03-09T20:23:12.138Z,88.58
2019-03-09T20:24:11.595Z,88.58
2019-03-09T20:25:10.254Z,88.87
2019-03-09T20:26:08.891Z,88.77
2019-03-09T20:27:08.163Z,88.77
2019-03-09T20:30:47.100Z,88.1
2019-03-09T20:31:46.901Z,88.1
2019-03-09T20:32:44.349Z,87.91
2019-03-09T20:33:42.984Z,87.91
2019-03-09T20:34:41.652Z,88.2
2019-03-09T20:35:40.543Z,88.01
2019-03-09T20:36:39.572Z,88.06
2019-03-09T20:37:38.361Z,88.01
2019-03-09T20:38:37.372Z,88.1
2019-03-09T20:41:17.982Z,88.29
2019-03-09T20:42:17.299Z,88.29
2019-03-09T20:43:15.926Z,88.54
2019-03-09T20:44:14.577Z,88.1
2019-03-09T20:45:14.650Z,88.39
2019-03-09T20:46:12.614Z,87.91
2019-03-09T20:47:11.908Z,87.82
2019-03-09T20:48:10.667Z,88.39
2019-03-09T20:49:10.131Z,88.1
2019-03-09T20:50:08.923Z,88.29
2019-03-09T20:52:49.081Z,88.29
2019-03-09T20:53:48.138Z,88.2
2019-03-09T20:54:47.489Z,87.91
2019-03-09T20:55:46.008Z,88.01
2019-03-09T20:56:44.632Z,88.29
2019-03-09T20:57:43.326Z,88.1
2019-03-09T20:58:42.088Z,88.15
2019-03-09T20:59:40.701Z,88.2
2019-03-09T21:00:39.358Z,87.34
2019-03-09T21:01:37.995Z,87.34
2019-03-09T21:02:36.589Z,88.29
2019-03-09T21:03:35.334Z,87.43
2019-03-09T21:04:34.272Z,87.53
2019-03-09T21:05:32.902Z,87.72
2019-03-09T21:06:31.481Z,87.34
2019-03-09T21:07:30.122Z,87.53
2019-03-09T21:08:28.778Z,87.24
2019-03-09T21:09:27.490Z,87.15
2019-03-09T21:11:52.352Z,87.43
2019-03-09T21:12:51.015Z,87.05
2019-03-09T21:21:24.859Z,86.57
2019-03-09T21:22:24.077Z,86.47
2019-03-09T21:23:23.388Z,85.71
2019-03-09T21:24:22.575Z,85.62
2019-03-09T21:25:22.196Z,86.1
2019-03-09T21:26:20.829Z,86.76
2019-03-09T21:27:19.697Z,86.67
2019-03-09T21:28:18.457Z,86.67
2019-03-09T21:29:17.395Z,86.86
2019-03-09T21:30:16.321Z,86.96
2019-03-09T21:31:14.862Z,86.67
2019-03-09T21:32:13.924Z,87.34
2019-03-09T21:33:12.524Z,86.96
2019-03-09T21:34:11.405Z,87.24
2019-03-09T21:35:10.986Z,87.43
2019-03-09T21:36:09.375Z,87.53
2019-03-09T21:37:08.514Z,88.2
2019-03-09T21:39:49.684Z,88.2
2019-03-09T21:40:48.361Z,88.01
2019-03-09T21:43:10.979Z,88.77
2019-03-09T21:44:10.489Z,88.1
2019-03-09T21:50:03.344Z,88.96
2019-03-09T21:51:01.929Z,88.68
2019-03-09T21:53:42.389Z,88.01
2019-03-09T21:54:41.014Z,88.1
2019-03-09T21:55:39.727Z,88.87
2019-03-09T21:56:38.313Z,88.68
2019-03-09T21:57:36.879Z,88.58
2019-03-09T21:58:35.462Z,88.48
2019-03-09T21:59:34.051Z,88.68
2019-03-09T22:00:32.688Z,88.77
2019-03-09T22:01:31.661Z,88.29
2019-03-09T22:02:30.576Z,87.91
2019-03-09T22:03:29.178Z,88.01
2019-03-09T22:04:27.904Z,87.91
2019-03-09T22:05:26.527Z,87.91
2019-03-09T22:06:25.342Z,88.2
2019-03-09T22:07:24.065Z,87.72
2019-03-09T22:08:22.855Z,87.53
2019-03-09T22:12:18.540Z,87.34
2019-03-09T22:13:18.566Z,87.72
2019-03-09T22:14:15.987Z,87.24
2019-03-09T22:15:15.214Z,87.24
2019-03-09T22:16:13.999Z,87.15
2019-03-09T22:17:12.721Z,87.53
2019-03-09T22:19:52.751Z,87.05
2019-03-09T22:20:51.425Z,86.86
2019-03-09T22:21:50.036Z,87.15
2019-03-09T22:22:49.229Z,87.05
2019-03-09T22:23:47.904Z,87.34
2019-03-09T22:24:46.523Z,87.05
2019-03-09T22:25:45.557Z,86.67
2019-03-09T22:26:44.279Z,87.24
2019-03-09T22:27:42.930Z,87.15
2019-03-09T22:28:42.456Z,87.24
2019-03-09T22:29:41.203Z,87.43
2019-03-09T22:30:39.769Z,87.05
2019-03-09T22:44:39.115Z,88.58
2019-03-09T22:45:38.060Z,88.68
2019-03-09T22:46:38.061Z,88.58
2019-03-09T22:47:35.922Z,89.06
2019-03-09T22:48:34.510Z,88.87
2019-03-09T22:49:33.072Z,88.77
2019-03-09T22:50:31.609Z,89.34
2019-03-09T22:51:32.342Z,89.15
2019-03-09T22:52:30.977Z,88.96
2019-03-09T22:53:29.786Z,89.53
2019-03-09T22:54:28.442Z,89.25
2019-03-09T22:55:27.035Z,88.77
2019-03-09T22:56:25.624Z,89.53
2019-03-09T22:59:06.275Z,89.06
2019-03-09T23:00:05.059Z,88.96
2019-03-09T23:01:03.628Z,89.06
2019-03-09T23:02:02.409Z,88.96
2019-03-09T23:03:01.004Z,88.96
2019-03-09T23:03:59.812Z,89.82
2019-03-09T23:04:58.411Z,89.63
2019-03-09T23:08:43.332Z,89.34
2019-03-09T23:09:42.200Z,89.63
2019-03-09T23:10:41.383Z,89.63
2019-03-09T23:37:07.427Z,94.31
2019-03-09T23:38:06.156Z,94.31
2019-03-09T23:39:04.734Z,94.12
2019-03-09T23:40:03.291Z,94.12
2019-03-09T23:41:01.951Z,94.22
2019-03-09T23:42:00.549Z,94.02
2019-03-09T23:42:59.244Z,94.31
2019-03-09T23:43:57.927Z,94.31
2019-03-09T23:44:56.495Z,94.31
2019-03-09T23:45:55.111Z,94.22
2019-03-09T23:46:53.809Z,94.98
2019-03-09T23:47:52.375Z,94.89
2019-03-09T23:48:50.987Z,94.89
2019-03-09T23:49:49.913Z,94.98
2019-03-09T23:50:48.506Z,94.6
2019-03-09T23:51:47.085Z,94.79
2019-03-09T23:52:45.652Z,94.89
2019-03-09T23:53:44.406Z,94.79
2019-03-09T23:54:43.007Z,95.17
2019-03-09T23:55:41.669Z,94.89
2019-03-09T23:56:40.353Z,95.07
2019-03-09T23:59:20.817Z,94.89
